Time,TemperatureF,DewpointF,PressureIn,WindDirection,WindDirectionDegrees,WindSpeedMPH,WindSpeedGustMPH,Humidity,HourlyPrecipIn,Conditions,Clouds,dailyrainin,SoftwareType,DateUTC
2015-07-06 00:00:00,77.0,67.3,29.56,SSE,161,10.0,11.0,72,0.00,,BKN018,0.00,VWS V14.01,2015-07-06 05:00:00,
2015-07-06 00:05:00,77.2,67.5,29.56,SE,126,17.0,17.0,72,0.00,,BKN018,0.00,VWS V14.01,2015-07-06 05:05:00,
2015-07-06 00:10:00,77.2,68.3,29.56,SSE,153,2.0,17.0,74,0.00,,BKN018,0.00,VWS V14.01,2015-07-06 05:10:00,
2015-07-06 00:15:00,76.7,68.6,29.55,SE,144,6.0,17.0,76,0.01,,BKN018,0.01,VWS V14.01,2015-07-06 05:15:00,
2015-07-06 00:20:00,76.1,68.8,29.55,SE,129,1.0,17.0,78,0.01,,BKN018,0.01,VWS V14.01,2015-07-06 05:20:00,
2015-07-06 00:25:00,75.8,68.8,29.55,SE,126,0.0,17.0,79,0.01,,BKN018,0.01,VWS V14.01,2015-07-06 05:25:00,
2015-07-06 00:30:00,75.4,68.4,29.56,SE,126,1.0,1.0,79,0.01,,BKN018,0.01,VWS V14.01,2015-07-06 05:30:00,
2015-07-06 00:35:00,75.4,68.8,29.56,SE,126,0.0,2.0,80,0.01,,BKN018,0.01,VWS V14.01,2015-07-06 05:35:00,
2015-07-06 00:40:00,75.3,68.3,29.56,SSE,158,0.0,7.0,79,0.01,,BKN018,0.01,VWS V14.01,2015-07-06 05:40:00,
2015-07-06 00:45:00,75.3,68.7,29.56,SE,133,0.0,8.0,80,0.01,,BKN018,0.01,VWS V14.01,2015-07-06 05:45:00,
2015-07-06 00:50:00,75.3,68.7,29.56,SE,137,0.0,8.0,80,0.01,,BKN018,0.01,VWS V14.01,2015-07-06 05:50:00,
2015-07-06 00:55:00,75.3,68.3,29.56,ESE,112,0.0,8.0,79,0.02,,BKN018,0.02,VWS V14.01,2015-07-06 05:55:00,
2015-07-06 01:00:00,75.3,68.7,29.56,ESE,112,0.0,0.0,80,0.02,,BKN018,0.02,VWS V14.01,2015-07-06 06:00:00,
2015-07-06 01:05:00,74.9,69.0,29.56,ESE,112,0.0,6.0,82,0.02,,BKN018,0.02,VWS V14.01,2015-07-06 06:05:00,
2015-07-06 01:11:00,74.7,69.2,29.56,ESE,112,1.0,6.0,83,0.02,,BKN018,0.02,VWS V14.01,2015-07-06 06:11:00,
2015-07-06 01:16:00,74.2,69.1,29.55,ESE,112,1.0,6.0,84,0.05,,BKN018,0.05,VWS V14.01,2015-07-06 06:16:00,
2015-07-06 01:21:00,73.9,69.1,29.55,ESE,108,1.0,6.0,85,0.05,,BKN018,0.05,VWS V14.01,2015-07-06 06:21:00,
2015-07-06 01:26:00,73.7,69.3,29.55,ESE,106,0.0,6.0,86,0.05,,BKN018,0.05,VWS V14.01,2015-07-06 06:26:00,
2015-07-06 01:31:00,73.5,69.4,29.53,ESE,106,1.0,1.0,87,0.05,,BKN018,0.06,VWS V14.01,2015-07-06 06:31:00,
2015-07-06 01:36:00,73.3,69.2,29.53,ESE,106,0.0,2.0,87,0.05,,BKN018,0.06,VWS V14.01,2015-07-06 06:36:00,
2015-07-06 01:41:00,73.2,69.1,29.53,ESE,112,2.0,6.0,87,0.05,,BKN018,0.06,VWS V14.01,2015-07-06 06:41:00,
2015-07-06 01:46:00,73.0,69.2,29.52,ESE,112,1.0,6.0,88,0.05,,BKN018,0.06,VWS V14.01,2015-07-06 06:46:00,
2015-07-06 01:51:00,73.0,68.9,29.52,ESE,110,2.0,6.0,87,0.05,,BKN018,0.06,VWS V14.01,2015-07-06 06:51:00,
2015-07-06 01:56:00,72.8,69.0,29.52,ESE,109,1.0,6.0,88,0.06,,BKN018,0.07,VWS V14.01,2015-07-06 06:56:00,
2015-07-06 02:01:00,72.8,68.7,29.51,ESE,105,4.0,7.0,87,0.05,,BKN018,0.07,VWS V14.01,2015-07-06 07:01:00,
2015-07-06 02:06:00,72.8,68.7,29.51,ESE,105,1.0,9.0,87,0.05,,BKN018,0.07,VWS V14.01,2015-07-06 07:06:00,
2015-07-06 02:11:00,72.8,68.7,29.51,SE,125,6.0,16.0,87,0.05,,BKN018,0.07,VWS V14.01,2015-07-06 07:11:00,
2015-07-06 02:16:00,73.0,68.9,29.50,ESE,112,8.0,16.0,87,0.05,,BKN018,0.07,VWS V14.01,2015-07-06 07:16:00,
2015-07-06 02:21:00,73.0,68.9,29.50,ESE,118,0.0,16.0,87,0.05,,BKN018,0.07,VWS V14.01,2015-07-06 07:21:00,
2015-07-06 02:26:00,73.0,68.9,29.50,ESE,118,0.0,16.0,87,0.05,,BKN018,0.07,VWS V14.01,2015-07-06 07:26:00,
2015-07-06 02:31:00,73.0,68.9,29.49,ESE,106,5.0,7.0,87,0.01,,BKN018,0.07,VWS V14.01,2015-07-06 07:31:00,
2015-07-06 02:36:00,72.8,68.7,29.49,ESE,103,2.0,7.0,87,0.03,,BKN018,0.09,VWS V14.01,2015-07-06 07:36:00,
2015-07-06 02:41:00,72.8,69.0,29.49,ESE,103,0.0,7.0,88,0.04,,BKN018,0.10,VWS V14.01,2015-07-06 07:41:00,
2015-07-06 02:46:00,72.5,69.1,29.51,West,270,8.0,8.0,89,0.05,,BKN018,0.11,VWS V14.01,2015-07-06 07:46:00,
2015-07-06 02:51:00,72.1,69.3,29.51,WNW,293,19.0,19.0,91,0.23,,BKN018,0.29,VWS V14.01,2015-07-06 07:51:00,
2015-07-06 02:56:00,71.3,70.1,29.51,NW,315,9.0,27.0,96,0.92,,BKN018,0.98,VWS V14.01,2015-07-06 07:56:00,
2015-07-06 03:01:00,71.3,70.4,29.54,NW,326,7.0,9.0,97,1.16,,BKN018,1.23,VWS V14.01,2015-07-06 08:01:00,
2015-07-06 03:06:00,71.3,70.7,29.54,NW,326,1.0,12.0,98,1.23,,BKN018,1.30,VWS V14.01,2015-07-06 08:06:00,
2015-07-06 03:11:00,71.3,70.7,29.54,NE,36,5.0,12.0,98,1.28,,BKN018,1.35,VWS V14.01,2015-07-06 08:11:00,
2015-07-06 03:16:00,71.3,70.7,29.55,NE,55,2.0,12.0,98,1.35,,BKN018,1.42,VWS V14.01,2015-07-06 08:16:00,
2015-07-06 03:21:00,71.3,70.7,29.55,NE,38,0.0,12.0,98,1.39,,BKN018,1.46,VWS V14.01,2015-07-06 08:21:00,
2015-07-06 03:26:00,71.3,70.7,29.55,NNE,19,0.0,12.0,98,1.45,,BKN018,1.52,VWS V14.01,2015-07-06 08:26:00,
2015-07-06 03:31:00,71.1,70.5,29.55,NE,46,1.0,5.0,98,1.65,,BKN018,1.72,VWS V14.01,2015-07-06 08:31:00,
2015-07-06 03:36:00,71.3,70.7,29.55,NE,46,0.0,5.0,98,1.73,,BKN018,1.80,VWS V14.01,2015-07-06 08:36:00,
2015-07-06 03:41:00,71.1,70.5,29.55,NE,50,0.0,5.0,98,1.76,,BKN018,1.83,VWS V14.01,2015-07-06 08:41:00,
2015-07-06 03:46:00,71.3,71.0,29.53,NE,50,0.0,5.0,99,1.79,,BKN018,1.86,VWS V14.01,2015-07-06 08:46:00,
2015-07-06 03:51:00,70.9,70.6,29.53,NE,37,0.0,6.0,99,1.80,,BKN018,1.87,VWS V14.01,2015-07-06 08:51:00,
2015-07-06 03:56:00,71.1,70.8,29.53,NE,37,0.0,6.0,99,1.81,,BKN018,1.88,VWS V14.01,2015-07-06 08:56:00,
2015-07-06 04:01:00,70.9,70.6,29.55,NE,43,2.0,6.0,99,0.69,,BKN018,1.90,VWS V14.01,2015-07-06 09:01:00,
2015-07-06 04:06:00,71.1,70.8,29.55,NE,38,12.0,12.0,99,0.71,,BKN018,1.92,VWS V14.01,2015-07-06 09:06:00,
2015-07-06 04:11:00,70.8,70.5,29.55,NNE,13,2.0,12.0,99,0.72,,BKN018,1.93,VWS V14.01,2015-07-06 09:11:00,
2015-07-06 04:16:00,70.8,70.5,29.55,NE,54,0.0,12.0,99,0.76,,BKN018,1.97,VWS V14.01,2015-07-06 09:16:00,
2015-07-06 04:22:00,70.6,70.3,29.55,ENE,57,0.0,12.0,99,0.78,,BKN018,1.99,VWS V14.01,2015-07-06 09:22:00,
2015-07-06 04:27:00,70.6,70.3,29.55,ENE,62,0.0,12.0,99,0.80,,BKN018,2.01,VWS V14.01,2015-07-06 09:27:00,
2015-07-06 04:32:00,70.4,70.1,29.55,ENE,61,0.0,4.0,99,0.39,,BKN018,2.03,VWS V14.01,2015-07-06 09:32:00,
2015-07-06 04:37:00,70.4,70.1,29.55,NE,53,6.0,8.0,99,0.42,,BKN018,2.06,VWS V14.01,2015-07-06 09:37:00,
2015-07-06 04:42:00,70.3,70.0,29.55,ENE,60,10.0,12.0,99,0.44,,BKN018,2.08,VWS V14.01,2015-07-06 09:42:00,
2015-07-06 04:47:00,70.4,70.1,29.54,East,98,8.0,12.0,99,0.48,,BKN018,2.12,VWS V14.01,2015-07-06 09:47:00,
2015-07-06 04:52:00,70.4,70.1,29.54,ESE,106,6.0,12.0,99,0.51,,BKN018,2.15,VWS V14.01,2015-07-06 09:52:00,
2015-07-06 04:57:00,70.3,70.0,29.54,East,79,6.0,12.0,99,0.52,,BKN018,2.16,VWS V14.01,2015-07-06 09:57:00,
2015-07-06 05:02:00,70.3,70.0,29.55,ESE,106,8.0,9.0,99,0.31,,BKN018,2.20,VWS V14.01,2015-07-06 10:02:00,
2015-07-06 05:07:00,70.3,70.0,29.55,ESE,105,7.0,10.0,99,0.35,,BKN018,2.24,VWS V14.01,2015-07-06 10:07:00,
2015-07-06 05:12:00,70.3,70.0,29.55,East,98,8.0,10.0,99,0.43,,BKN018,2.32,VWS V14.01,2015-07-06 10:12:00,
2015-07-06 05:17:00,70.4,70.1,29.56,East,98,0.0,10.0,99,0.47,,BKN018,2.36,VWS V14.01,2015-07-06 10:17:00,
2015-07-06 05:22:00,70.4,70.1,29.56,West,270,0.0,10.0,99,0.50,,BKN018,2.39,VWS V14.01,2015-07-06 10:22:00,
2015-07-06 05:27:00,70.4,70.1,29.56,SW,229,2.0,10.0,99,0.63,,BKN018,2.52,VWS V14.01,2015-07-06 10:27:00,
2015-07-06 05:32:00,70.4,70.1,29.59,ESE,115,7.0,11.0,99,0.59,,BKN018,2.62,VWS V14.01,2015-07-06 10:32:00,
2015-07-06 05:37:00,70.4,70.1,29.59,ESE,122,5.0,11.0,99,0.63,,BKN018,2.66,VWS V14.01,2015-07-06 10:37:00,
2015-07-06 05:42:00,70.4,70.1,29.59,SE,134,1.0,11.0,99,0.75,,BKN018,2.78,VWS V14.01,2015-07-06 10:42:00,
2015-07-06 05:47:00,69.3,69.0,29.58,ESE,120,7.0,18.0,99,1.04,,BKN018,3.07,VWS V14.01,2015-07-06 10:47:00,
2015-07-06 05:52:00,68.9,68.6,29.58,ESE,115,16.0,21.0,99,1.19,,BKN018,3.22,VWS V14.01,2015-07-06 10:52:00,
2015-07-06 05:57:00,69.1,68.8,29.58,East,96,7.0,22.0,99,1.29,,BKN018,3.32,VWS V14.01,2015-07-06 10:57:00,
2015-07-06 06:02:00,69.3,69.0,29.55,East,86,5.0,13.0,99,1.15,,BKN018,3.34,VWS V14.01,2015-07-06 11:02:00,
2015-07-06 06:07:00,69.3,69.0,29.55,East,101,6.0,13.0,99,1.16,,BKN018,3.35,VWS V14.01,2015-07-06 11:07:00,
2015-07-06 06:12:00,68.9,68.6,29.55,East,101,4.0,13.0,99,1.18,,BKN018,3.37,VWS V14.01,2015-07-06 11:12:00,
2015-07-06 06:17:00,68.9,68.6,29.56,East,101,0.0,13.0,99,1.19,,BKN018,3.38,VWS V14.01,2015-07-06 11:17:00,
2015-07-06 06:22:00,68.9,68.6,29.56,East,101,0.0,13.0,99,1.20,,BKN018,3.39,VWS V14.01,2015-07-06 11:22:00,
2015-07-06 06:27:00,68.9,68.6,29.56,East,101,0.0,13.0,99,1.21,,BKN018,3.40,VWS V14.01,2015-07-06 11:27:00,
2015-07-06 06:32:00,69.1,68.8,29.55,East,101,0.0,6.0,99,0.81,,BKN018,3.41,VWS V14.01,2015-07-06 11:32:00,
2015-07-06 06:37:00,68.9,68.6,29.55,East,101,0.0,6.0,99,0.82,,BKN018,3.42,VWS V14.01,2015-07-06 11:37:00,
2015-07-06 06:42:00,68.9,68.9,29.55,East,101,0.0,6.0,100,0.84,,BKN018,3.44,VWS V14.01,2015-07-06 11:42:00,
2015-07-06 06:47:00,68.9,68.9,29.54,East,95,6.0,7.0,100,0.87,,BKN018,3.47,VWS V14.01,2015-07-06 11:47:00,
2015-07-06 06:52:00,68.9,68.9,29.54,East,99,1.0,8.0,100,0.88,,BKN018,3.48,VWS V14.01,2015-07-06 11:52:00,
2015-07-06 06:57:00,68.9,68.9,29.54,ESE,102,3.0,8.0,100,0.89,,BKN018,3.49,VWS V14.01,2015-07-06 11:57:00,
2015-07-06 07:02:00,68.9,68.9,29.54,ESE,109,3.0,5.0,100,0.17,,BKN018,3.50,VWS V14.01,2015-07-06 12:02:00,
2015-07-06 07:07:00,68.8,61.3,29.54,ESE,122,0.0,7.0,77,0.18,,BKN018,3.51,VWS V14.01,2015-07-06 12:07:00,
2015-07-06 07:12:00,68.8,59.8,29.54,ESE,120,0.0,7.0,73,0.19,,BKN018,3.52,VWS V14.01,2015-07-06 12:12:00,
2015-07-06 07:17:00,68.8,59.8,29.54,ESE,109,0.0,7.0,73,0.19,,BKN018,3.52,VWS V14.01,2015-07-06 12:17:00,
2015-07-06 07:22:00,68.9,59.5,29.54,ESE,109,0.0,7.0,72,0.20,,BKN018,3.53,VWS V14.01,2015-07-06 12:22:00,
2015-07-06 07:27:00,69.1,58.9,29.54,ESE,109,0.0,7.0,70,0.20,,BKN018,3.53,VWS V14.01,2015-07-06 12:27:00,
2015-07-06 07:32:00,69.1,58.5,29.54,ESE,109,0.0,0.0,69,0.13,,BKN018,3.53,VWS V14.01,2015-07-06 12:32:00,
2015-07-06 07:38:00,69.1,58.5,29.54,ESE,109,0.0,0.0,69,0.13,,BKN018,3.53,VWS V14.01,2015-07-06 12:38:00,
2015-07-06 07:43:00,69.3,59.1,29.54,ESE,109,0.0,0.0,70,0.13,,BKN018,3.53,VWS V14.01,2015-07-06 12:43:00,
2015-07-06 07:48:00,69.3,58.7,29.56,ESE,109,0.0,0.0,69,0.14,,BKN018,3.54,VWS V14.01,2015-07-06 12:48:00,
2015-07-06 07:53:00,69.4,58.8,29.56,ESE,109,0.0,0.0,69,0.14,,BKN018,3.54,VWS V14.01,2015-07-06 12:53:00,
2015-07-06 07:58:00,69.6,59.0,29.56,ESE,109,0.0,0.0,69,0.14,,BKN018,3.54,VWS V14.01,2015-07-06 12:58:00,
2015-07-06 08:03:00,69.8,59.2,29.55,ESE,109,0.0,0.0,69,0.05,,BKN018,3.55,VWS V14.01,2015-07-06 13:03:00,
2015-07-06 08:08:00,69.9,62.7,29.55,SE,143,0.0,2.0,78,0.05,,BKN018,3.55,VWS V14.01,2015-07-06 13:08:00,
2015-07-06 08:13:00,70.3,64.6,29.55,SE,143,0.0,2.0,82,0.05,,BKN018,3.55,VWS V14.01,2015-07-06 13:13:00,
2015-07-06 08:18:00,70.4,70.4,29.54,SE,143,0.0,2.0,100,0.05,,BKN018,3.55,VWS V14.01,2015-07-06 13:18:00,
2015-07-06 08:23:00,70.8,70.8,29.54,SE,143,0.0,2.0,100,0.05,,BKN018,3.55,VWS V14.01,2015-07-06 13:23:00,
2015-07-06 08:28:00,71.1,71.1,29.54,SE,143,0.0,2.0,100,0.05,,BKN018,3.55,VWS V14.01,2015-07-06 13:28:00,